sensor_id;sensor_type;location;lat;lon;timestamp;temperature;humidity
37956;DHT22;23776;51.592;7.180;2023-03-01T00:01:22;0.70;99.90
37956;DHT22;23776;51.592;7.180;2023-03-01T00:03:48;0.70;99.90
37956;DHT22;23776;51.592;7.180;2023-03-01T00:06:14;0.80;99.90
37956;DHT22;23776;51.592;7.180;2023-03-01T00:08:41;0.80;99.90
37956;DHT22;23776;51.592;7.180;2023-03-01T00:11:21;0.80;99.90
37956;DHT22;23776;51.592;7.180;2023-03-01T00:13:49;0.80;1.00
37956;DHT22;23776;51.592;7.180;2023-03-01T00:16:21;0.80;99.90
37956;DHT22;23776;51.592;7.180;2023-03-01T00:18:47;0.80;99.90
37956;DHT22;23776;51.592;7.180;2023-03-01T00:21:13;0.80;1.00
37956;DHT22;23776;51.592;7.180;2023-03-01T00:23:39;0.80;1.00
37956;DHT22;23776;51.592;7.180;2023-03-01T00:26:10;0.70;99.90
37956;DHT22;23776;51.592;7.180;2023-03-01T00:28:36;0.70;1.00
37956;DHT22;23776;51.592;7.180;2023-03-01T00:31:09;0.70;99.90
37956;DHT22;23776;51.592;7.180;2023-03-01T00:33:35;0.70;99.90
37956;DHT22;23776;51.592;7.180;2023-03-01T00:36:01;0.70;99.90
37956;DHT22;23776;51.592;7.180;2023-03-01T00:38:27;0.70;99.90
37956;DHT22;23776;51.592;7.180;2023-03-01T00:40:52;0.80;1.00
37956;DHT22;23776;51.592;7.180;2023-03-01T00:43:18;0.70;1.00
37956;DHT22;23776;51.592;7.180;2023-03-01T00:45:44;0.70;1.00
37956;DHT22;23776;51.592;7.180;2023-03-01T00:48:09;0.70;99.90
37956;DHT22;23776;51.592;7.180;2023-03-01T00:50:35;0.70;1.00
37956;DHT22;23776;51.592;7.180;2023-03-01T00:53:01;0.70;1.00
37956;DHT22;23776;51.592;7.180;2023-03-01T00:55:26;0.70;99.90
37956;DHT22;23776;51.592;7.180;2023-03-01T00:57:52;0.70;99.90
37956;DHT22;23776;51.592;7.180;2023-03-01T01:00:19;0.70;1.00
37956;DHT22;23776;51.592;7.180;2023-03-01T01:02:45;0.70;14.70
37956;DHT22;23776;51.592;7.180;2023-03-01T01:05:11;0.70;99.90
37956;DHT22;23776;51.592;7.180;2023-03-01T01:07:37;0.70;99.90
37956;DHT22;23776;51.592;7.180;2023-03-01T01:10:03;0.70;1.00
37956;DHT22;23776;51.592;7.180;2023-03-01T01:12:28;0.70;99.90
37956;DHT22;23776;51.592;7.180;2023-03-01T01:14:54;0.70;99.90
37956;DHT22;23776;51.592;7.180;2023-03-01T01:17:20;0.70;1.00
37956;DHT22;23776;51.592;7.180;2023-03-01T01:19:45;0.60;1.00
37956;DHT22;23776;51.592;7.180;2023-03-01T01:22:11;0.60;1.00
37956;DHT22;23776;51.592;7.180;2023-03-01T01:24:36;0.60;99.90
37956;DHT22;23776;51.592;7.180;2023-03-01T01:27:02;0.50;99.90
37956;DHT22;23776;51.592;7.180;2023-03-01T01:29:28;0.50;1.00
37956;DHT22;23776;51.592;7.180;2023-03-01T01:31:53;0.40;1.00
37956;DHT22;23776;51.592;7.180;2023-03-01T01:34:21;0.30;99.90
37956;DHT22;23776;51.592;7.180;2023-03-01T01:36:53;0.30;1.00
37956;DHT22;23776;51.592;7.180;2023-03-01T01:39:20;0.40;99.90
37956;DHT22;23776;51.592;7.180;2023-03-01T01:41:46;0.30;24.20
37956;DHT22;23776;51.592;7.180;2023-03-01T01:44:19;0.40;99.90
37956;DHT22;23776;51.592;7.180;2023-03-01T01:46:52;0.30;99.90
37956;DHT22;23776;51.592;7.180;2023-03-01T01:49:34;0.30;99.90
37956;DHT22;23776;51.592;7.180;2023-03-01T01:52:09;0.30;99.90
37956;DHT22;23776;51.592;7.180;2023-03-01T01:54:44;0.20;99.90
37956;DHT22;23776;51.592;7.180;2023-03-01T01:57:16;0.20;99.90
37956;DHT22;23776;51.592;7.180;2023-03-01T01:59:49;0.10;99.90
37956;DHT22;23776;51.592;7.180;2023-03-01T02:02:16;0.10;99.90
37956;DHT22;23776;51.592;7.180;2023-03-01T02:04:42;0.10;99.90
37956;DHT22;23776;51.592;7.180;2023-03-01T02:07:17;0.00;99.90
37956;DHT22;23776;51.592;7.180;2023-03-01T02:09:48;0.10;1.00
37956;DHT22;23776;51.592;7.180;2023-03-01T02:12:19;0.00;99.90
37956;DHT22;23776;51.592;7.180;2023-03-01T02:14:45;0.00;99.90
37956;DHT22;23776;51.592;7.180;2023-03-01T02:17:15;0.00;99.90
37956;DHT22;23776;51.592;7.180;2023-03-01T02:22:31;-0.10;99.90
37956;DHT22;23776;51.592;7.180;2023-03-01T02:30:19;0.00;99.90
37956;DHT22;23776;51.592;7.180;2023-03-01T02:32:46;0.00;1.00
37956;DHT22;23776;51.592;7.180;2023-03-01T02:35:15;0.10;1.00
37956;DHT22;23776;51.592;7.180;2023-03-01T02:37:42;0.10;1.00
37956;DHT22;23776;51.592;7.180;2023-03-01T02:40:12;0.10;1.00
37956;DHT22;23776;51.592;7.180;2023-03-01T02:42:50;-0.80;1.00
37956;DHT22;23776;51.592;7.180;2023-03-01T02:45:17;0.10;1.00
37956;DHT22;23776;51.592;7.180;2023-03-01T02:47:42;0.00;1.00
37956;DHT22;23776;51.592;7.180;2023-03-01T02:50:43;0.00;60.20
37956;DHT22;23776;51.592;7.180;2023-03-01T02:53:05;-0.10;1.00
37956;DHT22;23776;51.592;7.180;2023-03-01T02:55:33;-0.10;69.50
37956;DHT22;23776;51.592;7.180;2023-03-01T02:58:01;-0.20;99.90
37956;DHT22;23776;51.592;7.180;2023-03-01T03:00:33;-0.20;61.10
37956;DHT22;23776;51.592;7.180;2023-03-01T03:02:59;-0.20;1.00
37956;DHT22;23776;51.592;7.180;2023-03-01T03:05:28;-0.20;1.00
37956;DHT22;23776;51.592;7.180;2023-03-01T03:07:54;0.70;1.00
37956;DHT22;23776;51.592;7.180;2023-03-01T03:10:31;-0.30;99.90
37956;DHT22;23776;51.592;7.180;2023-03-01T03:12:59;-0.20;43.30
37956;DHT22;23776;51.592;7.180;2023-03-01T03:15:26;-0.30;46.00
37956;DHT22;23776;51.592;7.180;2023-03-01T03:17:53;-0.30;89.40
37956;DHT22;23776;51.592;7.180;2023-03-01T03:20:21;-0.30;99.90
37956;DHT22;23776;51.592;7.180;2023-03-01T03:22:51;-0.30;99.90
37956;DHT22;23776;51.592;7.180;2023-03-01T03:25:18;-0.30;99.90
37956;DHT22;23776;51.592;7.180;2023-03-01T03:27:46;-0.40;99.90
37956;DHT22;23776;51.592;7.180;2023-03-01T03:30:17;-0.40;99.90
37956;DHT22;23776;51.592;7.180;2023-03-01T03:32:44;-0.50;66.00
37956;DHT22;23776;51.592;7.180;2023-03-01T03:35:31;-0.50;73.90
37956;DHT22;23776;51.592;7.180;2023-03-01T03:37:58;-0.50;97.30
37956;DHT22;23776;51.592;7.180;2023-03-01T03:40:34;-0.60;23.70
37956;DHT22;23776;51.592;7.180;2023-03-01T03:43:00;-0.60;63.10
37956;DHT22;23776;51.592;7.180;2023-03-01T03:45:25;-0.60;99.90
37956;DHT22;23776;51.592;7.180;2023-03-01T03:47:51;-0.50;99.90
37956;DHT22;23776;51.592;7.180;2023-03-01T03:50:17;-0.50;99.90
37956;DHT22;23776;51.592;7.180;2023-03-01T03:52:43;-0.50;99.90
37956;DHT22;23776;51.592;7.180;2023-03-01T03:55:11;-0.50;99.90
37956;DHT22;23776;51.592;7.180;2023-03-01T03:57:38;-2.40;99.90
37956;DHT22;23776;51.592;7.180;2023-03-01T04:00:06;-0.50;99.90
37956;DHT22;23776;51.592;7.180;2023-03-01T04:02:38;-0.60;99.90
37956;DHT22;23776;51.592;7.180;2023-03-01T04:05:04;-0.60;99.90
37956;DHT22;23776;51.592;7.180;2023-03-01T04:07:30;-0.60;99.90
37956;DHT22;23776;51.592;7.180;2023-03-01T04:09:56;-0.60;99.90
37956;DHT22;23776;51.592;7.180;2023-03-01T04:12:21;-0.60;99.90
37956;DHT22;23776;51.592;7.180;2023-03-01T04:14:48;-0.70;99.90
37956;DHT22;23776;51.592;7.180;2023-03-01T04:17:14;-0.60;99.90
37956;DHT22;23776;51.592;7.180;2023-03-01T04:19:39;1.70;99.90
37956;DHT22;23776;51.592;7.180;2023-03-01T04:22:05;-0.60;99.90
37956;DHT22;23776;51.592;7.180;2023-03-01T04:24:35;-0.50;99.90
37956;DHT22;23776;51.592;7.180;2023-03-01T04:27:01;-0.50;99.90
37956;DHT22;23776;51.592;7.180;2023-03-01T04:29:27;-0.60;99.90
37956;DHT22;23776;51.592;7.180;2023-03-01T04:31:53;-0.60;99.90
37956;DHT22;23776;51.592;7.180;2023-03-01T04:34:18;-0.60;99.90
37956;DHT22;23776;51.592;7.180;2023-03-01T04:36:44;-0.70;99.90
37956;DHT22;23776;51.592;7.180;2023-03-01T04:39:10;-0.60;99.90
37956;DHT22;23776;51.592;7.180;2023-03-01T04:41:39;-0.70;99.90
37956;DHT22;23776;51.592;7.180;2023-03-01T04:44:05;-0.70;99.90
37956;DHT22;23776;51.592;7.180;2023-03-01T04:46:31;-0.70;99.90
37956;DHT22;23776;51.592;7.180;2023-03-01T04:48:56;-0.80;99.90
37956;DHT22;23776;51.592;7.180;2023-03-01T04:51:22;-0.70;99.90
37956;DHT22;23776;51.592;7.180;2023-03-01T04:53:47;-0.70;99.90
37956;DHT22;23776;51.592;7.180;2023-03-01T04:56:13;-0.60;99.90
37956;DHT22;23776;51.592;7.180;2023-03-01T04:58:39;1.50;99.90
37956;DHT22;23776;51.592;7.180;2023-03-01T05:01:13;-0.70;99.90
37956;DHT22;23776;51.592;7.180;2023-03-01T05:03:43;-0.70;99.90
37956;DHT22;23776;51.592;7.180;2023-03-01T05:06:10;-0.80;99.90
37956;DHT22;23776;51.592;7.180;2023-03-01T05:08:37;-0.80;99.90
37956;DHT22;23776;51.592;7.180;2023-03-01T05:11:02;-0.80;99.90
37956;DHT22;23776;51.592;7.180;2023-03-01T05:13:28;-0.80;99.90
37956;DHT22;23776;51.592;7.180;2023-03-01T05:15:59;-0.80;99.90
37956;DHT22;23776;51.592;7.180;2023-03-01T05:18:26;-0.80;99.90
37956;DHT22;23776;51.592;7.180;2023-03-01T05:20:54;-0.80;99.90
37956;DHT22;23776;51.592;7.180;2023-03-01T05:23:22;-0.80;99.90
37956;DHT22;23776;51.592;7.180;2023-03-01T05:25:48;-0.80;99.90
37956;DHT22;23776;51.592;7.180;2023-03-01T05:28:15;-0.90;99.90
37956;DHT22;23776;51.592;7.180;2023-03-01T05:30:40;-0.90;99.90
37956;DHT22;23776;51.592;7.180;2023-03-01T05:33:07;-0.90;99.90
37956;DHT22;23776;51.592;7.180;2023-03-01T05:35:39;-1.00;99.90
37956;DHT22;23776;51.592;7.180;2023-03-01T05:38:05;-1.00;99.90
37956;DHT22;23776;51.592;7.180;2023-03-01T05:40:33;-1.00;99.90
37956;DHT22;23776;51.592;7.180;2023-03-01T05:42:59;-0.90;99.90
37956;DHT22;23776;51.592;7.180;2023-03-01T05:45:26;-1.00;99.90
37956;DHT22;23776;51.592;7.180;2023-03-01T05:47:53;-1.00;99.90
37956;DHT22;23776;51.592;7.180;2023-03-01T05:50:23;-1.00;99.90
37956;DHT22;23776;51.592;7.180;2023-03-01T05:53:04;-1.10;99.90
37956;DHT22;23776;51.592;7.180;2023-03-01T05:55:34;-1.10;99.90
37956;DHT22;23776;51.592;7.180;2023-03-01T05:58:01;-1.20;99.90
37956;DHT22;23776;51.592;7.180;2023-03-01T06:00:28;-1.10;99.90
37956;DHT22;23776;51.592;7.180;2023-03-01T06:02:55;-1.10;99.90
37956;DHT22;23776;51.592;7.180;2023-03-01T06:05:21;-1.20;99.90
37956;DHT22;23776;51.592;7.180;2023-03-01T06:07:47;-1.20;99.90
37956;DHT22;23776;51.592;7.180;2023-03-01T06:10:14;-1.20;99.90
37956;DHT22;23776;51.592;7.180;2023-03-01T06:12:41;-1.20;99.90
37956;DHT22;23776;51.592;7.180;2023-03-01T06:15:08;-1.20;99.90
37956;DHT22;23776;51.592;7.180;2023-03-01T06:17:36;-1.20;99.90
37956;DHT22;23776;51.592;7.180;2023-03-01T06:20:08;0.40;99.90
37956;DHT22;23776;51.592;7.180;2023-03-01T06:22:34;-1.30;99.90
37956;DHT22;23776;51.592;7.180;2023-03-01T06:24:59;-1.30;99.90
37956;DHT22;23776;51.592;7.180;2023-03-01T06:27:25;-1.30;99.90
37956;DHT22;23776;51.592;7.180;2023-03-01T06:29:50;-1.40;99.90
37956;DHT22;23776;51.592;7.180;2023-03-01T06:32:16;-1.40;99.90
37956;DHT22;23776;51.592;7.180;2023-03-01T06:34:41;-1.40;99.90
37956;DHT22;23776;51.592;7.180;2023-03-01T06:37:07;-1.40;99.90
37956;DHT22;23776;51.592;7.180;2023-03-01T06:39:33;-1.40;99.90
37956;DHT22;23776;51.592;7.180;2023-03-01T06:41:59;-1.40;99.90
37956;DHT22;23776;51.592;7.180;2023-03-01T06:44:25;-1.30;99.90
37956;DHT22;23776;51.592;7.180;2023-03-01T06:46:50;-1.40;99.90
37956;DHT22;23776;51.592;7.180;2023-03-01T06:49:16;-1.40;99.90
37956;DHT22;23776;51.592;7.180;2023-03-01T06:51:44;-1.30;99.90
37956;DHT22;23776;51.592;7.180;2023-03-01T06:54:10;-1.30;99.90
37956;DHT22;23776;51.592;7.180;2023-03-01T06:56:36;-1.30;99.90
37956;DHT22;23776;51.592;7.180;2023-03-01T06:59:02;-1.30;99.90
37956;DHT22;23776;51.592;7.180;2023-03-01T07:01:28;-1.30;99.90
37956;DHT22;23776;51.592;7.180;2023-03-01T07:03:54;-1.20;99.90
37956;DHT22;23776;51.592;7.180;2023-03-01T07:06:20;-1.20;99.90
37956;DHT22;23776;51.592;7.180;2023-03-01T07:08:45;-1.10;99.90
37956;DHT22;23776;51.592;7.180;2023-03-01T07:11:11;-1.10;99.90
37956;DHT22;23776;51.592;7.180;2023-03-01T07:13:37;-1.10;99.90
37956;DHT22;23776;51.592;7.180;2023-03-01T07:16:02;-1.10;99.90
37956;DHT22;23776;51.592;7.180;2023-03-01T07:18:28;-1.00;99.90
37956;DHT22;23776;51.592;7.180;2023-03-01T07:20:54;-1.00;99.90
37956;DHT22;23776;51.592;7.180;2023-03-01T07:23:19;-0.90;99.90
37956;DHT22;23776;51.592;7.180;2023-03-01T07:25:51;-0.90;95.40
37956;DHT22;23776;51.592;7.180;2023-03-01T07:28:17;-0.80;99.90
37956;DHT22;23776;51.592;7.180;2023-03-01T07:30:42;-0.70;99.90
37956;DHT22;23776;51.592;7.180;2023-03-01T07:33:08;-0.60;99.90
37956;DHT22;23776;51.592;7.180;2023-03-01T07:35:34;-0.60;1.00
37956;DHT22;23776;51.592;7.180;2023-03-01T07:37:59;-0.50;1.00
37956;DHT22;23776;51.592;7.180;2023-03-01T07:40:25;-0.50;1.00
37956;DHT22;23776;51.592;7.180;2023-03-01T07:42:55;-0.30;1.00
37956;DHT22;23776;51.592;7.180;2023-03-01T07:45:21;-0.30;99.90
37956;DHT22;23776;51.592;7.180;2023-03-01T07:47:47;-0.20;99.90
37956;DHT22;23776;51.592;7.180;2023-03-01T07:50:12;-0.20;99.90
37956;DHT22;23776;51.592;7.180;2023-03-01T07:52:38;-0.10;99.90
37956;DHT22;23776;51.592;7.180;2023-03-01T07:55:04;0.00;17.90
37956;DHT22;23776;51.592;7.180;2023-03-01T07:57:30;0.00;1.00
37956;DHT22;23776;51.592;7.180;2023-03-01T07:59:56;0.10;1.00
37956;DHT22;23776;51.592;7.180;2023-03-01T08:02:22;0.10;1.00
37956;DHT22;23776;51.592;7.180;2023-03-01T08:04:47;0.20;99.90
37956;DHT22;23776;51.592;7.180;2023-03-01T08:07:13;0.20;99.90
37956;DHT22;23776;51.592;7.180;2023-03-01T08:09:39;0.30;61.40
37956;DHT22;23776;51.592;7.180;2023-03-01T08:12:05;0.30;1.00
37956;DHT22;23776;51.592;7.180;2023-03-01T08:14:32;0.40;1.00
37956;DHT22;23776;51.592;7.180;2023-03-01T08:16:57;0.50;99.90
37956;DHT22;23776;51.592;7.180;2023-03-01T08:19:23;0.50;1.00
37956;DHT22;23776;51.592;7.180;2023-03-01T08:21:49;0.60;1.00
37956;DHT22;23776;51.592;7.180;2023-03-01T08:24:14;0.70;1.00
37956;DHT22;23776;51.592;7.180;2023-03-01T08:26:40;0.70;1.00
37956;DHT22;23776;51.592;7.180;2023-03-01T08:29:06;0.80;99.90
37956;DHT22;23776;51.592;7.180;2023-03-01T08:31:38;0.90;16.10
37956;DHT22;23776;51.592;7.180;2023-03-01T08:34:10;0.90;1.00
37956;DHT22;23776;51.592;7.180;2023-03-01T08:36:41;0.90;99.90
37956;DHT22;23776;51.592;7.180;2023-03-01T08:39:09;1.00;99.90
37956;DHT22;23776;51.592;7.180;2023-03-01T08:41:35;1.00;99.90
37956;DHT22;23776;51.592;7.180;2023-03-01T08:44:01;1.10;99.90
37956;DHT22;23776;51.592;7.180;2023-03-01T08:46:32;1.20;99.90
37956;DHT22;23776;51.592;7.180;2023-03-01T08:48:58;1.30;1.00
37956;DHT22;23776;51.592;7.180;2023-03-01T08:51:25;1.40;1.00
37956;DHT22;23776;51.592;7.180;2023-03-01T08:53:51;1.50;1.00
37956;DHT22;23776;51.592;7.180;2023-03-01T08:56:18;1.50;99.90
37956;DHT22;23776;51.592;7.180;2023-03-01T08:58:45;1.60;86.60
37956;DHT22;23776;51.592;7.180;2023-03-01T09:01:14;1.70;1.00
37956;DHT22;23776;51.592;7.180;2023-03-01T09:03:40;1.80;1.00
37956;DHT22;23776;51.592;7.180;2023-03-01T09:06:06;1.80;1.00
37956;DHT22;23776;51.592;7.180;2023-03-01T09:08:39;1.90;99.90
37956;DHT22;23776;51.592;7.180;2023-03-01T09:11:07;2.00;99.90
37956;DHT22;23776;51.592;7.180;2023-03-01T09:13:33;2.20;99.90
37956;DHT22;23776;51.592;7.180;2023-03-01T09:16:01;2.20;99.90
37956;DHT22;23776;51.592;7.180;2023-03-01T09:18:27;2.20;99.90
37956;DHT22;23776;51.592;7.180;2023-03-01T09:20:52;2.30;97.00
37956;DHT22;23776;51.592;7.180;2023-03-01T09:23:21;2.40;1.00
37956;DHT22;23776;51.592;7.180;2023-03-01T09:25:47;2.60;1.00
37956;DHT22;23776;51.592;7.180;2023-03-01T09:28:12;2.60;99.90
37956;DHT22;23776;51.592;7.180;2023-03-01T09:30:38;2.70;99.90
37956;DHT22;23776;51.592;7.180;2023-03-01T09:33:03;2.80;99.90
37956;DHT22;23776;51.592;7.180;2023-03-01T09:35:29;2.90;91.80
37956;DHT22;23776;51.592;7.180;2023-03-01T09:37:54;3.10;1.00
37956;DHT22;23776;51.592;7.180;2023-03-01T09:40:23;3.10;99.90
37956;DHT22;23776;51.592;7.180;2023-03-01T09:43:13;3.10;99.90
37956;DHT22;23776;51.592;7.180;2023-03-01T09:45:44;3.20;99.90
37956;DHT22;23776;51.592;7.180;2023-03-01T09:48:18;3.30;99.90
37956;DHT22;23776;51.592;7.180;2023-03-01T09:50:44;3.40;99.90
37956;DHT22;23776;51.592;7.180;2023-03-01T09:53:21;3.50;99.90
37956;DHT22;23776;51.592;7.180;2023-03-01T09:56:05;3.70;99.90
37956;DHT22;23776;51.592;7.180;2023-03-01T10:01:33;3.90;58.10
37956;DHT22;23776;51.592;7.180;2023-03-01T10:06:57;4.20;2.90
37956;DHT22;23776;51.592;7.180;2023-03-01T10:09:24;4.30;1.00
37956;DHT22;23776;51.592;7.180;2023-03-01T10:11:52;4.20;1.00
37956;DHT22;23776;51.592;7.180;2023-03-01T10:19:33;4.40;99.90
37956;DHT22;23776;51.592;7.180;2023-03-01T10:24:48;4.60;99.90
37956;DHT22;23776;51.592;7.180;2023-03-01T10:30:10;4.70;99.90
37956;DHT22;23776;51.592;7.180;2023-03-01T10:32:38;4.80;99.90
37956;DHT22;23776;51.592;7.180;2023-03-01T10:35:18;4.90;99.90
37956;DHT22;23776;51.592;7.180;2023-03-01T10:38:04;5.00;99.90
37956;DHT22;23776;51.592;7.180;2023-03-01T10:40:32;5.20;91.00
37956;DHT22;23776;51.592;7.180;2023-03-01T10:43:01;5.40;55.80
37956;DHT22;23776;51.592;7.180;2023-03-01T10:45:38;5.90;3.40
37956;DHT22;23776;51.592;7.180;2023-03-01T10:48:24;6.60;1.00
37956;DHT22;23776;51.592;7.180;2023-03-01T10:53:35;8.30;1.00
37956;DHT22;23776;51.592;7.180;2023-03-01T10:56:13;8.80;99.90
37956;DHT22;23776;51.592;7.180;2023-03-01T10:59:00;9.30;99.90
37956;DHT22;23776;51.592;7.180;2023-03-01T11:01:35;9.90;99.90
37956;DHT22;23776;51.592;7.180;2023-03-01T11:06:33;11.10;99.90
37956;DHT22;23776;51.592;7.180;2023-03-01T11:09:23;11.50;99.90
37956;DHT22;23776;51.592;7.180;2023-03-01T11:11:57;12.00;99.90
37956;DHT22;23776;51.592;7.180;2023-03-01T11:14:27;12.60;99.90
37956;DHT22;23776;51.592;7.180;2023-03-01T11:20:45;13.00;99.90
37956;DHT22;23776;51.592;7.180;2023-03-01T11:22:59;13.20;99.90
37956;DHT22;23776;51.592;7.180;2023-03-01T11:25:39;13.40;99.90
37956;DHT22;23776;51.592;7.180;2023-03-01T11:28:06;13.70;99.90
37956;DHT22;23776;51.592;7.180;2023-03-01T11:30:51;13.80;99.90
37956;DHT22;23776;51.592;7.180;2023-03-01T11:33:43;14.00;99.90
37956;DHT22;23776;51.592;7.180;2023-03-01T11:36:28;14.60;99.90
37956;DHT22;23776;51.592;7.180;2023-03-01T11:38:56;14.90;99.90
37956;DHT22;23776;51.592;7.180;2023-03-01T11:41:33;15.10;99.90
37956;DHT22;23776;51.592;7.180;2023-03-01T11:44:01;15.60;99.90
37956;DHT22;23776;51.592;7.180;2023-03-01T11:52:24;16.00;99.90
37956;DHT22;23776;51.592;7.180;2023-03-01T11:55:12;16.40;99.90
37956;DHT22;23776;51.592;7.180;2023-03-01T12:01:29;17.20;99.90
37956;DHT22;23776;51.592;7.180;2023-03-01T12:04:18;17.80;99.90
37956;DHT22;23776;51.592;7.180;2023-03-01T12:26:35;18.30;99.90
37956;DHT22;23776;51.592;7.180;2023-03-01T12:29:24;18.40;99.90
37956;DHT22;23776;51.592;7.180;2023-03-01T12:35:10;18.60;99.90
37956;DHT22;23776;51.592;7.180;2023-03-01T12:43:20;19.00;99.90
37956;DHT22;23776;51.592;7.180;2023-03-01T12:51:07;18.10;99.90
37956;DHT22;23776;51.592;7.180;2023-03-01T12:53:41;17.10;99.90
37956;DHT22;23776;51.592;7.180;2023-03-01T12:56:22;17.00;99.90
37956;DHT22;23776;51.592;7.180;2023-03-01T13:07:44;15.50;99.90
37956;DHT22;23776;51.592;7.180;2023-03-01T13:10:23;15.00;99.90
37956;DHT22;23776;51.592;7.180;2023-03-01T13:17:53;13.80;99.90
37956;DHT22;23776;51.592;7.180;2023-03-01T13:44:35;13.20;99.90
37956;DHT22;23776;51.592;7.180;2023-03-01T13:49:48;13.30;99.90
37956;DHT22;23776;51.592;7.180;2023-03-01T13:57:40;13.30;99.90
37956;DHT22;23776;51.592;7.180;2023-03-01T14:00:24;13.00;99.90
37956;DHT22;23776;51.592;7.180;2023-03-01T14:03:12;12.80;99.90
37956;DHT22;23776;51.592;7.180;2023-03-01T14:05:39;12.50;99.90
37956;DHT22;23776;51.592;7.180;2023-03-01T14:08:17;12.30;99.90
37956;DHT22;23776;51.592;7.180;2023-03-01T14:11:24;12.00;99.90
37956;DHT22;23776;51.592;7.180;2023-03-01T14:14:22;12.00;99.90
37956;DHT22;23776;51.592;7.180;2023-03-01T14:19:30;11.90;99.90
37956;DHT22;23776;51.592;7.180;2023-03-01T14:24:34;12.10;99.90
37956;DHT22;23776;51.592;7.180;2023-03-01T14:27:02;11.90;99.90
37956;DHT22;23776;51.592;7.180;2023-03-01T14:29:35;11.70;99.90
37956;DHT22;23776;51.592;7.180;2023-03-01T14:32:20;11.80;99.90
37956;DHT22;23776;51.592;7.180;2023-03-01T14:34:48;12.00;99.90
37956;DHT22;23776;51.592;7.180;2023-03-01T14:37:32;12.00;99.90
37956;DHT22;23776;51.592;7.180;2023-03-01T14:40:00;11.90;99.90
37956;DHT22;23776;51.592;7.180;2023-03-01T14:42:28;11.90;99.90
37956;DHT22;23776;51.592;7.180;2023-03-01T14:44:55;11.80;99.90
37956;DHT22;23776;51.592;7.180;2023-03-01T14:47:31;11.80;99.90
37956;DHT22;23776;51.592;7.180;2023-03-01T14:50:01;11.90;99.90
37956;DHT22;23776;51.592;7.180;2023-03-01T14:52:39;12.00;99.90
37956;DHT22;23776;51.592;7.180;2023-03-01T14:55:12;12.20;99.90
37956;DHT22;23776;51.592;7.180;2023-03-01T14:57:43;12.20;99.90
37956;DHT22;23776;51.592;7.180;2023-03-01T15:00:21;12.10;99.90
37956;DHT22;23776;51.592;7.180;2023-03-01T15:02:49;11.80;99.90
37956;DHT22;23776;51.592;7.180;2023-03-01T15:05:21;11.60;99.90
37956;DHT22;23776;51.592;7.180;2023-03-01T15:07:47;11.40;99.90
37956;DHT22;23776;51.592;7.180;2023-03-01T15:10:30;11.40;99.90
37956;DHT22;23776;51.592;7.180;2023-03-01T15:13:10;11.00;99.90
37956;DHT22;23776;51.592;7.180;2023-03-01T15:15:38;10.80;99.90
37956;DHT22;23776;51.592;7.180;2023-03-01T15:18:21;10.50;99.90
37956;DHT22;23776;51.592;7.180;2023-03-01T15:20:49;10.10;99.90
37956;DHT22;23776;51.592;7.180;2023-03-01T15:23:22;9.90;99.90
37956;DHT22;23776;51.592;7.180;2023-03-01T15:25:49;9.60;99.90
37956;DHT22;23776;51.592;7.180;2023-03-01T15:28:28;9.40;99.90
37956;DHT22;23776;51.592;7.180;2023-03-01T15:30:58;9.20;99.90
37956;DHT22;23776;51.592;7.180;2023-03-01T15:35:54;8.90;99.90
37956;DHT22;23776;51.592;7.180;2023-03-01T15:38:57;8.80;99.90
37956;DHT22;23776;51.592;7.180;2023-03-01T15:41:37;8.50;99.90
37956;DHT22;23776;51.592;7.180;2023-03-01T15:44:17;8.40;99.90
37956;DHT22;23776;51.592;7.180;2023-03-01T15:46:47;8.30;99.90
37956;DHT22;23776;51.592;7.180;2023-03-01T15:52:01;8.10;99.90
37956;DHT22;23776;51.592;7.180;2023-03-01T15:54:28;8.00;99.90
37956;DHT22;23776;51.592;7.180;2023-03-01T15:56:55;7.90;99.90
37956;DHT22;23776;51.592;7.180;2023-03-01T15:59:21;7.90;99.90
37956;DHT22;23776;51.592;7.180;2023-03-01T16:01:47;7.70;99.90
37956;DHT22;23776;51.592;7.180;2023-03-01T16:04:15;7.60;99.90
37956;DHT22;23776;51.592;7.180;2023-03-01T16:06:52;7.60;99.90
37956;DHT22;23776;51.592;7.180;2023-03-01T16:09:25;7.60;99.90
37956;DHT22;23776;51.592;7.180;2023-03-01T16:11:52;7.50;99.90
37956;DHT22;23776;51.592;7.180;2023-03-01T16:14:18;7.40;99.90
37956;DHT22;23776;51.592;7.180;2023-03-01T16:16:44;7.40;99.90
37956;DHT22;23776;51.592;7.180;2023-03-01T16:19:10;7.30;99.90
37956;DHT22;23776;51.592;7.180;2023-03-01T16:21:36;7.20;99.90
37956;DHT22;23776;51.592;7.180;2023-03-01T16:24:02;7.10;99.90
37956;DHT22;23776;51.592;7.180;2023-03-01T16:26:28;7.10;99.90
37956;DHT22;23776;51.592;7.180;2023-03-01T16:28:55;7.10;99.90
37956;DHT22;23776;51.592;7.180;2023-03-01T16:31:22;7.10;99.90
37956;DHT22;23776;51.592;7.180;2023-03-01T16:33:48;6.90;99.90
37956;DHT22;23776;51.592;7.180;2023-03-01T16:36:17;6.90;99.90
37956;DHT22;23776;51.592;7.180;2023-03-01T16:38:43;6.90;99.90
37956;DHT22;23776;51.592;7.180;2023-03-01T16:41:13;6.90;99.90
37956;DHT22;23776;51.592;7.180;2023-03-01T16:43:39;6.80;99.90
37956;DHT22;23776;51.592;7.180;2023-03-01T16:46:18;6.80;99.90
37956;DHT22;23776;51.592;7.180;2023-03-01T16:48:45;6.70;99.90
37956;DHT22;23776;51.592;7.180;2023-03-01T16:51:12;6.70;99.90
37956;DHT22;23776;51.592;7.180;2023-03-01T16:53:38;6.50;99.90
37956;DHT22;23776;51.592;7.180;2023-03-01T16:56:07;6.50;99.90
37956;DHT22;23776;51.592;7.180;2023-03-01T16:58:34;6.40;99.90
37956;DHT22;23776;51.592;7.180;2023-03-01T17:01:08;6.40;99.90
37956;DHT22;23776;51.592;7.180;2023-03-01T17:03:34;6.30;99.90
37956;DHT22;23776;51.592;7.180;2023-03-01T17:06:09;6.30;99.90
37956;DHT22;23776;51.592;7.180;2023-03-01T17:08:36;6.20;99.90
37956;DHT22;23776;51.592;7.180;2023-03-01T17:11:07;6.30;99.90
37956;DHT22;23776;51.592;7.180;2023-03-01T17:13:34;6.10;99.90
37956;DHT22;23776;51.592;7.180;2023-03-01T17:16:01;6.10;99.90
37956;DHT22;23776;51.592;7.180;2023-03-01T17:18:27;6.10;99.90
37956;DHT22;23776;51.592;7.180;2023-03-01T17:20:53;6.10;99.90
37956;DHT22;23776;51.592;7.180;2023-03-01T17:23:18;6.00;99.90
37956;DHT22;23776;51.592;7.180;2023-03-01T17:25:44;6.00;99.90
37956;DHT22;23776;51.592;7.180;2023-03-01T17:28:11;5.90;99.90
37956;DHT22;23776;51.592;7.180;2023-03-01T17:30:37;5.80;99.90
37956;DHT22;23776;51.592;7.180;2023-03-01T17:33:06;5.80;99.90
37956;DHT22;23776;51.592;7.180;2023-03-01T17:35:31;5.80;99.90
37956;DHT22;23776;51.592;7.180;2023-03-01T17:38:01;5.60;99.90
37956;DHT22;23776;51.592;7.180;2023-03-01T17:40:27;5.70;99.90
37956;DHT22;23776;51.592;7.180;2023-03-01T17:42:52;4.60;99.90
37956;DHT22;23776;51.592;7.180;2023-03-01T17:45:18;5.50;99.90
37956;DHT22;23776;51.592;7.180;2023-03-01T17:47:44;5.50;99.90
37956;DHT22;23776;51.592;7.180;2023-03-01T17:50:10;5.40;99.90
37956;DHT22;23776;51.592;7.180;2023-03-01T17:52:37;5.40;99.90
37956;DHT22;23776;51.592;7.180;2023-03-01T17:55:04;5.40;99.90
37956;DHT22;23776;51.592;7.180;2023-03-01T17:57:30;5.30;99.90
37956;DHT22;23776;51.592;7.180;2023-03-01T17:59:56;5.30;99.90
37956;DHT22;23776;51.592;7.180;2023-03-01T18:02:23;5.20;99.90
37956;DHT22;23776;51.592;7.180;2023-03-01T18:04:51;5.00;99.90
37956;DHT22;23776;51.592;7.180;2023-03-01T18:07:18;5.00;99.90